createdAt,value
2018-06-03T00:00:11.867Z,16.10
2018-06-03T00:05:09.160Z,16.10
2018-06-03T00:07:36.513Z,15.90
2018-06-03T00:10:03.854Z,16.20
2018-06-03T00:12:30.501Z,16.30
2018-06-03T00:14:58.891Z,16.20
2018-06-03T00:17:29.672Z,16.30
2018-06-03T00:20:00.278Z,16.30
2018-06-03T00:22:29.984Z,16.20
2018-06-03T00:24:59.671Z,16.20
2018-06-03T00:27:27.569Z,16.30
2018-06-03T00:29:57.416Z,16.10
2018-06-03T00:32:25.564Z,16.10
2018-06-03T00:34:52.544Z,16.20
2018-06-03T00:37:23.428Z,16.40
2018-06-03T00:39:54.808Z,16.30
2018-06-03T00:42:22.420Z,16.30
2018-06-03T00:44:49.093Z,16.30
2018-06-03T00:47:19.740Z,16.20
2018-06-03T00:49:49.505Z,16.30
2018-06-03T00:52:18.263Z,16.30
2018-06-03T00:54:54.470Z,16.50
2018-06-03T00:57:24.141Z,16.30
2018-06-03T00:59:53.863Z,16.30
2018-06-03T01:02:21.302Z,16.50
2018-06-03T01:04:49.691Z,16.50
2018-06-03T01:07:17.767Z,16.50
2018-06-03T01:09:45.589Z,16.50
2018-06-03T01:12:12.089Z,16.60
2018-06-03T01:14:39.957Z,16.50
2018-06-03T01:20:08.139Z,16.50
2018-06-03T01:22:39.111Z,16.30
2018-06-03T01:25:06.187Z,16.40
2018-06-03T01:27:33.752Z,16.50
2018-06-03T01:30:01.999Z,16.20
2018-06-03T01:32:28.980Z,16.40
2018-06-03T01:34:56.386Z,16.70
2018-06-03T01:37:26.400Z,16.60
2018-06-03T01:42:33.337Z,16.60
2018-06-03T01:45:04.617Z,16.70
2018-06-03T01:47:32.063Z,16.70
2018-06-03T01:49:59.149Z,16.70
2018-06-03T01:52:28.470Z,16.80
2018-06-03T01:54:57.484Z,16.50
2018-06-03T01:57:24.943Z,16.90
2018-06-03T01:59:52.193Z,16.70
2018-06-03T02:02:21.594Z,16.80
2018-06-03T02:04:56.469Z,16.90
2018-06-03T02:07:24.541Z,16.80
2018-06-03T02:09:52.281Z,17.10
2018-06-03T02:14:57.344Z,16.80
2018-06-03T02:17:25.393Z,16.70
2018-06-03T02:19:54.911Z,17.10
2018-06-03T02:22:27.469Z,16.80
2018-06-03T02:24:59.737Z,16.80
2018-06-03T02:27:26.930Z,16.70
2018-06-03T02:29:55.645Z,16.80
2018-06-03T02:32:23.398Z,16.70
2018-06-03T02:34:52.889Z,16.70
2018-06-03T02:37:22.078Z,16.60
2018-06-03T02:39:51.317Z,16.90
2018-06-03T02:42:19.988Z,16.60
2018-06-03T02:44:49.833Z,16.30
2018-06-03T02:47:18.305Z,16.40
2018-06-03T02:49:47.049Z,16.40
2018-06-03T02:52:19.619Z,16.40
2018-06-03T02:54:56.485Z,16.30
2018-06-03T02:57:28.764Z,16.30
2018-06-03T02:59:56.548Z,16.80
2018-06-03T03:02:31.877Z,16.20
2018-06-03T03:05:00.011Z,16.10
2018-06-03T03:07:30.479Z,16.10
2018-06-03T03:09:58.709Z,15.90
2018-06-03T03:12:28.990Z,15.90
2018-06-03T03:14:59.400Z,16.00
2018-06-03T03:17:26.664Z,16.10
2018-06-03T03:20:00.715Z,15.90
2018-06-03T03:25:04.815Z,16.00
2018-06-03T03:27:32.496Z,16.10
2018-06-03T03:30:04.256Z,16.20
2018-06-03T03:32:35.687Z,16.20
2018-06-03T03:35:05.111Z,16.20
2018-06-03T03:40:11.731Z,16.00
2018-06-03T03:42:40.294Z,16.20
2018-06-03T03:45:07.735Z,16.00
2018-06-03T03:47:38.172Z,16.00
2018-06-03T03:50:09.190Z,16.00
2018-06-03T03:55:15.809Z,16.10
2018-06-03T03:57:44.449Z,15.70
2018-06-03T04:00:19.923Z,16.00
2018-06-03T04:02:49.923Z,16.00
2018-06-03T04:05:20.271Z,15.90
2018-06-03T04:07:48.058Z,16.00
2018-06-03T04:10:23.356Z,16.00
2018-06-03T04:12:52.502Z,15.90
2018-06-03T04:15:23.719Z,15.90
2018-06-03T04:17:53.763Z,15.80
2018-06-03T04:21:31.453Z,16.00
2018-06-03T04:24:00.553Z,15.90
2018-06-03T04:26:28.435Z,15.90
2018-06-03T04:28:59.556Z,15.90
2018-06-03T04:31:26.018Z,15.90
2018-06-03T04:34:01.596Z,15.90
2018-06-03T04:36:31.040Z,16.00
2018-06-03T04:38:58.104Z,15.70
2018-06-03T04:41:30.056Z,15.80
2018-06-03T04:44:05.897Z,15.80
2018-06-03T04:46:38.501Z,15.80
2018-06-03T04:49:06.896Z,15.60
2018-06-03T04:51:34.894Z,15.70
2018-06-03T04:54:04.254Z,15.80
2018-06-03T04:56:33.459Z,15.80
2018-06-03T04:59:02.303Z,15.90
2018-06-03T05:04:11.446Z,15.80
2018-06-03T05:49:11.256Z,16.30
2018-06-03T05:51:40.393Z,16.30
2018-06-03T05:54:07.369Z,16.40
2018-06-03T05:56:35.102Z,16.50
2018-06-03T06:01:44.336Z,16.70
2018-06-03T06:06:47.518Z,16.60
2018-06-03T06:09:23.763Z,16.70
2018-06-03T06:11:53.743Z,16.80
2018-06-03T06:14:25.455Z,16.70
2018-06-03T06:16:55.603Z,16.70
2018-06-03T06:19:25.030Z,16.80
2018-06-03T06:21:53.135Z,16.80
2018-06-03T06:24:24.673Z,16.80
2018-06-03T06:26:51.619Z,17.00
2018-06-03T06:29:20.412Z,17.00
2018-06-03T06:31:48.795Z,16.90
2018-06-03T06:34:19.226Z,17.00
2018-06-03T06:36:47.533Z,17.00
2018-06-03T06:39:18.030Z,17.30
2018-06-03T06:41:47.767Z,17.20
2018-06-03T06:44:16.152Z,17.20
2018-06-03T06:46:48.493Z,17.50
2018-06-03T06:49:27.862Z,17.50
2018-06-03T06:51:59.301Z,17.40
2018-06-03T06:54:28.501Z,17.50
2018-06-03T06:56:58.730Z,17.80
2018-06-03T07:02:19.686Z,17.40
2018-06-03T07:10:00.109Z,17.70
2018-06-03T07:12:29.453Z,17.40
2018-06-03T07:15:09.549Z,17.90
2018-06-03T07:17:46.956Z,17.70
2018-06-03T07:20:21.724Z,17.50
2018-06-03T07:22:52.853Z,18.00
2018-06-03T07:25:23.752Z,17.80
2018-06-03T07:28:10.169Z,17.70
2018-06-03T07:30:42.612Z,17.80
2018-06-03T07:33:09.884Z,17.80
2018-06-03T07:35:36.375Z,17.80
2018-06-03T07:38:03.041Z,17.70
2018-06-03T07:40:29.592Z,18.10
2018-06-03T07:42:58.220Z,17.70
2018-06-03T07:45:29.240Z,17.80
2018-06-03T07:47:56.015Z,18.00
2018-06-03T07:50:22.858Z,18.00
2018-06-03T07:52:51.403Z,18.00
2018-06-03T07:55:17.926Z,18.10
2018-06-03T07:57:48.966Z,18.00
2018-06-03T08:00:27.153Z,18.00
2018-06-03T08:02:57.439Z,18.00
2018-06-03T08:08:00.471Z,18.00
2018-06-03T08:15:50.148Z,17.90
2018-06-03T08:18:21.628Z,18.30
2018-06-03T08:20:58.596Z,18.40
2018-06-03T08:26:20.273Z,18.70
2018-06-03T08:28:51.913Z,18.90
2018-06-03T08:31:25.030Z,19.10
2018-06-03T08:34:04.018Z,19.20
2018-06-03T08:36:38.071Z,19.10
2018-06-03T08:39:07.754Z,19.50
2018-06-03T08:41:38.291Z,19.50
2018-06-03T08:46:41.086Z,19.20
2018-06-03T08:49:10.738Z,19.30
2018-06-03T08:51:40.187Z,19.40
2018-06-03T08:54:19.170Z,19.40
2018-06-03T08:56:49.718Z,19.60
2018-06-03T09:02:01.515Z,19.50
2018-06-03T09:04:31.020Z,19.40
2018-06-03T09:07:06.789Z,19.30
2018-06-03T09:09:38.547Z,19.20
2018-06-03T09:12:08.648Z,19.20
2018-06-03T09:14:40.016Z,19.50
2018-06-03T09:17:12.929Z,19.50
2018-06-03T09:19:41.466Z,19.50
2018-06-03T09:22:10.706Z,19.70
2018-06-03T09:24:44.932Z,19.90
2018-06-03T09:27:17.787Z,19.80
2018-06-03T09:29:46.459Z,19.80
2018-06-03T09:32:20.438Z,19.90
2018-06-03T09:34:49.874Z,19.50
2018-06-03T09:37:17.219Z,19.40
2018-06-03T09:39:50.705Z,19.20
2018-06-03T09:42:20.732Z,19.10
2018-06-03T09:47:23.120Z,19.10
2018-06-03T09:49:56.986Z,19.30
2018-06-03T09:52:30.531Z,19.10
2018-06-03T09:54:59.327Z,19.00
2018-06-03T09:57:29.865Z,19.10
2018-06-03T09:59:59.417Z,19.00
2018-06-03T10:02:28.857Z,19.00
2018-06-03T10:05:01.145Z,18.90
2018-06-03T10:07:29.925Z,18.90
2018-06-03T10:09:59.148Z,19.00
2018-06-03T10:15:06.112Z,19.10
2018-06-03T10:17:37.194Z,19.10
2018-06-03T10:20:09.897Z,19.10
2018-06-03T10:22:50.402Z,19.50
2018-06-03T10:25:18.039Z,19.30
2018-06-03T10:27:45.914Z,19.40
2018-06-03T10:30:13.985Z,19.10
2018-06-03T10:32:41.763Z,19.20
2018-06-03T10:37:39.463Z,19.50
2018-06-03T10:40:06.932Z,19.20
2018-06-03T10:42:35.539Z,19.40
2018-06-03T10:45:02.949Z,19.70
2018-06-03T10:47:33.982Z,19.60
2018-06-03T10:50:02.113Z,19.80
2018-06-03T10:52:38.340Z,19.90
2018-06-03T10:55:09.046Z,19.80
2018-06-03T11:05:48.700Z,19.90
2018-06-03T11:08:21.618Z,19.80
2018-06-03T11:10:50.325Z,20.00
2018-06-03T11:13:20.348Z,20.10
2018-06-03T11:18:33.552Z,20.30
2018-06-03T11:23:35.947Z,20.30
2018-06-03T11:26:03.548Z,20.70
2018-06-03T11:28:31.806Z,20.40
2018-06-03T11:36:12.209Z,20.40
2018-06-03T11:41:26.210Z,21.20
2018-06-03T11:46:34.101Z,21.50
2018-06-03T11:49:02.529Z,21.70
2018-06-03T11:51:35.411Z,21.20
2018-06-03T11:54:09.239Z,21.10
2018-06-03T11:56:49.029Z,21.00
2018-06-03T11:59:25.612Z,21.30
2018-06-03T12:01:52.805Z,21.20
2018-06-03T12:04:20.697Z,21.80
2018-06-03T12:06:57.501Z,21.50
2018-06-03T12:12:02.797Z,22.50
2018-06-03T12:14:37.530Z,22.70
2018-06-03T12:17:15.241Z,22.60
2018-06-03T12:22:26.538Z,22.10
2018-06-03T12:24:58.708Z,22.30
2018-06-03T12:30:08.605Z,22.50
2018-06-03T12:32:37.967Z,22.40
2018-06-03T12:35:13.133Z,22.10
2018-06-03T12:37:53.314Z,21.80
2018-06-03T12:40:26.240Z,21.70
2018-06-03T12:48:52.747Z,21.30
2018-06-03T12:54:23.926Z,21.40
2018-06-03T12:56:59.436Z,21.50
2018-06-03T12:59:37.674Z,21.60
2018-06-03T13:02:10.456Z,21.40
2018-06-03T13:10:02.235Z,21.70
2018-06-03T13:12:30.304Z,21.50
2018-06-03T13:14:59.660Z,21.60
2018-06-03T13:17:26.869Z,21.40
2018-06-03T13:19:56.973Z,21.70
2018-06-03T13:27:22.571Z,21.60
2018-06-03T13:32:24.551Z,21.40
2018-06-03T13:34:51.323Z,21.60
2018-06-03T13:37:18.864Z,21.70
2018-06-03T13:39:45.264Z,21.70
2018-06-03T13:42:11.923Z,21.90
2018-06-03T13:44:38.385Z,21.70
2018-06-03T13:47:04.933Z,22.20
2018-06-03T13:49:31.410Z,21.90
2018-06-03T13:51:58.343Z,21.50
2018-06-03T13:54:25.980Z,21.50
2018-06-03T13:56:52.659Z,21.50
2018-06-03T13:59:19.392Z,21.50
2018-06-03T14:01:46.035Z,21.60
2018-06-03T14:04:13.660Z,21.50
2018-06-03T14:06:41.494Z,21.30
2018-06-03T14:09:11.232Z,21.90
2018-06-03T14:11:43.299Z,22.00
2018-06-03T14:14:11.084Z,22.10
2018-06-03T14:16:41.693Z,21.90
2018-06-03T14:19:12.557Z,21.80
2018-06-03T14:21:41.601Z,21.50
2018-06-03T14:24:13.946Z,21.60
2018-06-03T14:26:42.674Z,21.50
2018-06-03T14:29:13.822Z,21.50
2018-06-03T14:31:42.132Z,21.30
2018-06-03T14:34:09.416Z,21.40
2018-06-03T14:36:36.277Z,21.50
2018-06-03T14:39:05.802Z,21.70
2018-06-03T14:41:33.043Z,21.90
2018-06-03T14:44:00.965Z,22.00
2018-06-03T14:46:29.214Z,21.80
2018-06-03T14:48:56.374Z,21.80
2018-06-03T14:51:23.649Z,21.60
2018-06-03T14:53:51.301Z,22.00
2018-06-03T14:56:18.450Z,22.00
2018-06-03T14:58:45.037Z,21.90
2018-06-03T15:01:12.883Z,21.70
2018-06-03T15:03:40.861Z,21.50
2018-06-03T15:06:08.187Z,21.30
2018-06-03T15:08:35.649Z,21.30
2018-06-03T15:11:02.513Z,21.10
2018-06-03T15:13:30.208Z,21.10
2018-06-03T15:15:58.349Z,21.20
2018-06-03T15:18:26.965Z,21.10
2018-06-03T15:20:54.321Z,21.00
2018-06-03T15:25:52.405Z,21.20
2018-06-03T15:28:18.947Z,21.20
2018-06-03T15:30:49.894Z,21.30
2018-06-03T15:33:21.416Z,21.30
2018-06-03T15:35:48.521Z,21.30
2018-06-03T15:38:16.126Z,21.10
2018-06-03T15:40:44.235Z,21.10
2018-06-03T15:43:13.813Z,21.20
2018-06-03T15:45:46.356Z,21.10
2018-06-03T15:48:15.632Z,21.00
2018-06-03T15:50:44.913Z,21.30
2018-06-03T15:53:12.045Z,21.10
2018-06-03T15:55:40.900Z,21.20
2018-06-03T15:58:10.072Z,21.40
2018-06-03T16:00:45.249Z,21.40
2018-06-03T16:03:16.701Z,21.10
2018-06-03T16:05:44.355Z,21.10
2018-06-03T16:08:21.972Z,21.20
2018-06-03T16:13:24.196Z,21.90
2018-06-03T16:15:54.732Z,21.40
2018-06-03T16:18:25.384Z,21.60
2018-06-03T16:20:53.730Z,21.40
2018-06-03T16:23:20.620Z,21.30
2018-06-03T16:25:49.498Z,21.30
2018-06-03T16:28:19.652Z,21.40
2018-06-03T16:30:50.811Z,21.60
2018-06-03T16:33:29.723Z,21.70
2018-06-03T16:38:39.364Z,21.30
2018-06-03T16:41:10.336Z,21.00
2018-06-03T16:43:43.461Z,20.90
2018-06-03T16:46:14.763Z,21.10
2018-06-03T16:48:45.336Z,21.30
2018-06-03T16:51:18.526Z,21.40
2018-06-03T16:56:24.589Z,21.60
2018-06-03T16:58:52.865Z,21.40
2018-06-03T17:01:27.975Z,21.50
2018-06-03T17:03:59.596Z,21.30
2018-06-03T17:06:32.826Z,21.40
2018-06-03T17:09:02.613Z,21.20
2018-06-03T17:11:32.518Z,21.40
2018-06-03T17:16:44.040Z,21.40
2018-06-03T17:19:15.876Z,21.40
2018-06-03T17:21:58.907Z,21.30
2018-06-03T17:29:37.569Z,21.10
2018-06-03T17:34:45.482Z,21.40
2018-06-03T17:37:15.529Z,21.60
2018-06-03T17:39:48.169Z,21.80
2018-06-03T17:42:18.764Z,22.10
2018-06-03T17:44:45.828Z,22.10
2018-06-03T17:47:13.818Z,21.90
2018-06-03T17:49:45.803Z,22.30
2018-06-03T17:52:23.139Z,22.50
2018-06-03T17:54:51.812Z,22.70
2018-06-03T17:57:21.441Z,22.90
2018-06-03T18:02:26.144Z,23.00
2018-06-03T18:04:55.288Z,23.10
2018-06-03T18:07:27.977Z,22.90
2018-06-03T18:09:57.760Z,22.90
2018-06-03T18:12:31.482Z,22.70
2018-06-03T18:15:01.814Z,22.80
2018-06-03T18:17:34.303Z,22.50
2018-06-03T18:20:06.473Z,22.60
2018-06-03T18:22:34.714Z,22.30
2018-06-03T18:25:05.743Z,22.00
2018-06-03T18:27:34.448Z,21.90
2018-06-03T18:32:36.539Z,21.70
2018-06-03T18:35:03.201Z,21.60
2018-06-03T18:40:09.514Z,21.00
2018-06-03T18:42:39.648Z,21.00
2018-06-03T18:45:06.418Z,20.90
2018-06-03T18:47:35.125Z,20.70
2018-06-03T18:50:03.554Z,20.30
2018-06-03T18:52:33.267Z,20.10
2018-06-03T18:55:04.506Z,20.20
2018-06-03T18:57:34.896Z,20.10
2018-06-03T19:00:04.534Z,20.00
2018-06-03T19:02:34.493Z,20.10
2018-06-03T19:05:14.035Z,19.80
2018-06-03T19:15:27.931Z,19.10
2018-06-03T19:18:00.064Z,18.80
2018-06-03T19:20:30.865Z,18.50
2018-06-03T19:23:00.116Z,18.40
2018-06-03T19:25:28.504Z,18.40
2018-06-03T19:27:57.111Z,18.20
2018-06-03T19:30:27.924Z,18.20
2018-06-03T19:33:00.767Z,18.10
2018-06-03T19:35:35.022Z,18.10
2018-06-03T19:38:04.345Z,17.80
2018-06-03T19:45:51.054Z,17.70
2018-06-03T19:48:25.216Z,17.50
2018-06-03T19:53:35.820Z,17.50
2018-06-03T19:56:09.254Z,17.50
2018-06-03T19:58:38.579Z,17.60
2018-06-03T20:01:07.418Z,17.40
2018-06-03T20:06:15.875Z,17.20
2018-06-03T20:08:49.668Z,17.00
2018-06-03T20:11:27.665Z,17.10
2018-06-03T20:16:34.197Z,17.00
2018-06-03T20:32:30.620Z,16.60
2018-06-03T20:34:58.907Z,16.60
2018-06-03T20:37:29.681Z,16.50
2018-06-03T20:40:05.987Z,16.60
2018-06-03T20:42:33.313Z,16.50
2018-06-03T20:45:04.513Z,16.50
2018-06-03T20:47:37.464Z,16.40
2018-06-03T20:50:11.135Z,16.40
2018-06-03T20:55:32.271Z,16.40
2018-06-03T21:00:46.990Z,16.30
2018-06-03T21:05:51.302Z,16.40
2018-06-03T21:11:02.274Z,16.10
2018-06-03T21:13:34.044Z,16.00
2018-06-03T21:16:05.393Z,16.10
2018-06-03T21:18:45.415Z,16.10
2018-06-03T21:21:30.969Z,15.80
2018-06-03T21:24:07.683Z,16.30
2018-06-03T21:26:43.541Z,16.30
2018-06-03T21:29:18.253Z,16.20
2018-06-03T21:31:53.393Z,16.20
2018-06-03T21:34:24.854Z,16.20
2018-06-03T21:36:53.297Z,16.00
2018-06-03T21:39:23.864Z,16.20
2018-06-03T21:41:54.226Z,16.30
2018-06-03T21:47:12.616Z,16.20
2018-06-03T21:49:41.404Z,16.20
2018-06-03T21:52:11.129Z,16.00
2018-06-03T21:54:41.285Z,16.10
2018-06-03T21:57:10.237Z,16.10
2018-06-03T21:59:40.089Z,16.10
2018-06-03T22:02:07.547Z,16.00
2018-06-03T22:04:37.461Z,15.90
2018-06-03T22:07:09.499Z,16.00
2018-06-03T22:09:36.859Z,15.80
2018-06-03T22:12:11.241Z,16.00
2018-06-03T22:14:40.945Z,16.00
2018-06-03T22:17:16.132Z,15.80
2018-06-03T22:19:46.998Z,15.90
2018-06-03T22:22:20.715Z,15.70
2018-06-03T22:24:52.280Z,15.80
2018-06-03T22:27:21.808Z,15.70
2018-06-03T22:29:54.569Z,15.80
2018-06-03T22:32:28.555Z,15.70
2018-06-03T22:34:55.967Z,15.80
2018-06-03T22:37:25.769Z,15.70
2018-06-03T22:42:36.187Z,15.70
2018-06-03T22:45:05.369Z,15.80
2018-06-03T22:47:40.712Z,15.70
2018-06-03T22:50:09.081Z,15.60
2018-06-03T22:55:25.078Z,15.40
2018-06-03T22:57:55.500Z,15.70
2018-06-03T23:00:25.668Z,15.50
2018-06-03T23:02:55.916Z,15.50
2018-06-03T23:05:24.975Z,15.50
2018-06-03T23:07:52.032Z,15.30
2018-06-03T23:12:58.255Z,15.40
2018-06-03T23:15:25.641Z,15.50
2018-06-03T23:17:57.251Z,15.40
2018-06-03T23:20:26.044Z,15.20
2018-06-03T23:22:52.499Z,15.30
2018-06-03T23:25:20.585Z,15.40
2018-06-03T23:27:48.422Z,15.30
2018-06-03T23:30:15.050Z,15.40
2018-06-03T23:32:43.754Z,15.40
2018-06-03T23:35:15.825Z,15.40
2018-06-03T23:37:44.755Z,15.40
2018-06-03T23:40:12.807Z,15.40
2018-06-03T23:42:42.469Z,15.50
2018-06-03T23:45:16.996Z,15.30
2018-06-03T23:47:46.231Z,15.20
2018-06-03T23:50:19.377Z,15.30
2018-06-03T23:52:54.632Z,15.20
2018-06-03T23:55:27.053Z,15.30
2018-06-03T23:57:54.528Z,15.40
